Record high temperature 37.2°C Record low temperature -23.5°C Record high gust 79.6 km/h Record high average 153.6 km/h Record daily rain 39.6 mm Record low windchill -31.0°C Record high barometer 1039.8 hPa Record low barometer 980.3 hPa
Daily high pressure 1020.3 hPa Daily low pressure 1014.8 hPa Daily low windchill 17.9°C Daily high heat index 26.2°C Daily high gust speed 16.9 kmh WNW Daily high average speed 10.1 kmh NNW
Wetterdaten
LETZTE AKTUALISIERUNG UM: 11:15 DATUM: Juli 21 2019, time of next update: 11:30
Aktuelles Wetterpartly cloudy - Towering cumulus clouds observed Aktuelle Temperatur 26.1°C (79.0°F) (Hitze-Index 26.1°C ), Apparent temp 27.5°C , Apparent temp solar 31.6°C
Höchsttemperatur (seit Mitternacht)26.2°C um: 11:13 Tiefsttemperatur (seit Mitternacht)17.9°C um: 06:10
Windgeschwindigkeit (10 Minuten )5.2 kmh (2.8 kts) Windrichtung (Dir) (10 Minuten )WNW (284°)
Hitze-Index 26.1°C Windspitzen (letzte Std)15.2 kmh (8.2 kts) um: 10:49
Windspitzen (seit Mitternacht)16.9 kmh (9.1 kts) um: 03:28 Höchstes Windmittel / Minute (seit Mitternacht)10.1 kmh (5.4 kts) um: 03:22
Regenmenge (letzte Std)0.0 mm Regenmenge (seit Mitternacht)6.2 mm (0.24 in.) at 05:54
Regenmenge diesen Monat 24.0 mm (0.94 in.) Regenmenge seit Jahresbeginn 405.2 mm (15.95 in.)
Höchste Regenmenge pro Minute (letzte Std)0.0 mm/min Höchste Regenmenge pro Stunde (letzte 6 Std)3.0 mm/stunde
Regenmenge Gestern 0.0 mm Taupunkt 18.3°C (Wet Bulb :21.1°C )
Luftfeuchtigkeit 62 %, Humidex 32.3°C Aktueller Luftdruck (auf Meereshöhe bezogen)1020.3 hPa
Luftdrucktendenz +0.3 hPa (letzte Std) Trend (letzte 1 Std)gleichbleibend
Luftdrucktendenz (letzte 12 Std)+5.5 hPa Luftdrucktendenz (letzte 6 Std)+2.4 hPa
Maximum Soil temperature (seit Mitternacht) 22.8°C Minimum Soil temperature(seit Mitternacht)21.1°C
Current Soil temperature 22°C
Current Solar 220 W/m²
Maximum solar (seit Mitternacht) 962 W/m² Minimum solar(seit Mitternacht)0 W/m²
Current 01:48 hours of sunshine today, current sky: bewölkt
Sunshine hours for the year: 999:52 hrs Sunshine hours for the month: 160:41 hrs
Current evapotranspiration rate 2.6 mm per day. Yesterday's reading 4.9

Diese Seite wurde mit aktuellen Daten einer DAVIS VP Wetterstation erstellt. Drücken Sie bitte auf "Aktualisieren" oder "neu laden" um die neuesten Daten zu erhalten.


Animated web cam image


Weather report/warning/Metars

Stuttgart-Echterdingen, Germany (EDDS) 48-41N 009-13E 391M
Jul 21, 2019 - 04:50 AM EDT / 2019.07.21 0850 UTC
Wind: Variable at 7 MPH (6 KT):0
Visibility: greater than 7 mile(s):0
Sky conditions: partly cloudy
Weather: Towering cumulus clouds observed
Temperature: 75 F (24 C)
Dew Point: 60 F (16 C)
Relative Humidity: 60%
Pressure (altimeter): 30.18 in. Hg (1022 hPa)
ob: EDDS 210850Z VRB06KT 9999 FEW026TCU SCT033 24/16 Q1022 NOSIG
cycle: 9
Augsburg, Germany (EDMA) 48-26N 010-56E 463M
Jul 21, 2019 - 04:50 AM EDT / 2019.07.21 0850 UTC
Wind: from the S (190 degrees) at 8 MPH (7 KT) (direction variable):0
Visibility: greater than 7 mile(s):0
Sky conditions: mostly cloudy
Temperature: 69 F (21 C)
Dew Point: 64 F (18 C)
Relative Humidity: 82%
Pressure (altimeter): 30.18 in. Hg (1022 hPa)
ob: EDMA 210850Z 19007KT 160V230 9999 FEW014 SCT016 BKN048 21/18 Q1022
cycle: 9
Nuernberg, Germany (EDDN) 49-30N 011-03E 318M
Jul 21, 2019 - 04:50 AM EDT / 2019.07.21 0850 UTC
Wind: from the SSW (210 degrees) at 8 MPH (7 KT) (direction variable):0
Visibility: greater than 7 mile(s):0
Sky conditions: mostly cloudy
Temperature: 75 F (24 C)
Dew Point: 64 F (18 C)
Relative Humidity: 69%
Pressure (altimeter): 30.15 in. Hg (1021 hPa)
ob: EDDN 210850Z 21007KT 170V240 9999 BKN025 24/18 Q1021 NOSIG
cycle: 9
Berlin-Tegel, Germany (EDDT) 52-34N 013-19E 37M
Jul 21, 2019 - 04:50 AM EDT / 2019.07.21 0850 UTC
Wind: from the WNW (290 degrees) at 12 MPH (10 KT) (direction variable):0
Visibility: greater than 7 mile(s):0
Sky conditions: partly cloudy
Temperature: 69 F (21 C)
Dew Point: 60 F (16 C)
Relative Humidity: 73%
Pressure (altimeter): 30.03 in. Hg (1017 hPa)
ob: EDDT 210850Z 29010KT 250V330 9999 SCT022 21/16 Q1017 NOSIG
cycle: 9
Friedrichshafen, Germany (EDNY) 47-40N 009-31E 424M
Jul 21, 2019 - 04:50 AM EDT / 2019.07.21 0850 UTC
Wind: from the SSW (200 degrees) at 8 MPH (7 KT) (direction variable):0
Visibility: greater than 7 mile(s):0
Sky conditions: mostly cloudy
Temperature: 69 F (21 C)
Dew Point: 64 F (18 C)
Relative Humidity: 82%
Pressure (altimeter): 30.21 in. Hg (1023 hPa)
ob: EDNY 210850Z 20007KT 180V240 9999 FEW028 BKN038 21/18 Q1023
cycle: 9
Hamburg-Finkenwerder, Germany (EDHI) 53-32N 009-50E 13M
Jul 21, 2019 - 04:50 AM EDT / 2019.07.21 0850 UTC
Wind: from the W (260 degrees) at 15 MPH (13 KT):0
Visibility: greater than 7 mile(s):0
Sky conditions: mostly clear
Temperature: 69 F (21 C)
Dew Point: 59 F (15 C)
Relative Humidity: 68%
Pressure (altimeter): 30.00 in. Hg (1016 hPa)
ob: EDHI 210850Z AUTO 26013KT 9999 // FEW027/// 21/15 Q1016
cycle: 9



Die Wetterdaten werden alle 2 Minuten gespeichert, aber die Datenübertragung findet jede Minute statt. Die beste Ansicht wird in einer Auflösung von 800 x 600 und "True colour" erzielt. Linie zeigt die relative Luftfeuchtigkeit an.

Drücken Sie bitte auf "Aktualisieren" in Ihrem Browser, um die aktuellsten Daten zu erhalten.

Klicken Sie hier, um eine Übersicht der Durchschnitts- u. Extremwerte für den Monat zu erhalten
Created by "Weather Display" software version 10.37S at this start time/date 18:18:27 19.07.2019